Dearborn Heights, MI (48125)

5:37 AM EDT on August 20, 2014 (GMT -0400)
APRSWXNET Dearborn MI US | Change Station
CLOSE
Current Station
Personal Weather Station
Location: Dearborn, MI
Elevation: 659 ft
Nearby Weather Stations

Elev 659 ft 42.29 °N, 83.27 °W | Updated 35 minutes ago

Overcast
Overcast
67 °F
Feels Like 67 °F
N
0
Wind Variable Wind from West
Gusts 0.0 mph

Today
High -- | Low -- °F
--% Chance of Precip.
Yesterday
High -- | Low -- °F
Precip. -- in
6:45 AM 8:26 PM
Waning Crescent, 23% visible
Pressure 29.79 in
Visibility 4.0 miles
Clouds Mostly Cloudy 3500 ft
Mostly Cloudy 7500 ft
Overcast 18000 ft
Dew Point 66 °F
Humidity 97%
Rainfall 0.16 in
Snow Depth Not available.
UV 0 out of 12
Pollen 8.50 out of 12
Ozone Good
PM2.5 Good
Flu Activity Not available.
METAR KDTW 200853Z 18003KT 4SM BR BKN035 BKN075 OVC180 19/18 A2980 RMK AO2 SLP086 60000 T01940183 53001 $

More Conditions Fewer Conditions

Pressure 29.79 in
Visibility 4.0 miles
Clouds Mostly Cloudy 3500 ft
Mostly Cloudy 7500 ft
Overcast 18000 ft
Dew Point 66 °F
Humidity 97%
Rainfall 0.16 in
Snow Depth Not available.
UV 0 out of 12
Pollen 8.50 out of 12
Ozone Good
PM2.5 Good
Flu Activity Not available.
METAR KDTW 200853Z 18003KT 4SM BR BKN035 BKN075 OVC180 19/18 A2980 RMK AO2 SLP086 60000 T01940183 53001 $

More Conditions Fewer Conditions

10-Day Weather Forecast

Almanac

Astronomy

Aug. 20, 2014 Rise Set
Actual Time 6:45 AM EDT 8:26 PM EDT
Civil Twilight 6:15 AM EDT 8:56 PM EDT
Nautical Twilight 5:39 AM EDT 9:32 PM EDT
Astronomical Twilight 5:00 AM EDT 10:10 PM EDT
Moon 2:22 AM EDT 5:12 PM EDT
Length of Visible Light 14h 40m
Length of Day
13h 40m
Tomorrow will be 2m 37s shorter.
Waning Crescent, 23% of the Moon is Illuminated
Today
Waning Crescent
Aug 25
New
Sep 2
First Quarter
Sep 8
Full
Sep 15
Last Quarter

Today's Extremes

State Highs State Lows

Community

WunderPhotos

Upload Photos

1,745,604 photos uploaded!

Nearby

Air Quality

  Air Quality AQ Index Pollutant
Yesterday Good
PM10
Yesterday Good
OZONE
Current Good
PM2.5
Current Good
OZONE
Wednesday Moderate
PM2.5
Wednesday Good
OZONE
Thursday Moderate
PM2.5
Thursday Good
OZONE

Snow Depth

Station Depth Elevation
No new snow has been reported.

Earthquake Activity

City Distance Mag. Time & Date
No recent earthquake activity has been reported nearby.
Minimum magnitude displayed is 2.5.

Coastal Water Temperatures

Place Temperature
Marblehead, OH 71.1 °F

Nearby Weather Stations